Arcadia, North Carolina
Current Conditions -  °F | °C
As of 11:35 AM on Wednesday 22 Oct 2014 (Local Time) from KEXX Reporting Station
Clear Clear  
Wind Chill: 15°   Ceiling: Unl
Heat Index: 15°   Visibility: 10mi
Dew Point:   Wind: 5mph
Humidity: 47%   Direction: 310°NW
Pressure: 30.05"   Gusts: NA
Location:  35.7974°N, 80.2541°W
Report Text: KEXX 221535Z AUTO 31004KT 10SM CLR 15/04 A3005 RMK AO2 T01520039
Loading
Personal Weather Stations






























Interactive Weather Map
Tropical Storm Tracking
New forecast layout! Learn more

10-Day Weather Forecast

Advertisements
Track Severe Weather on mobile